Huvudsida
METAR-TAF:

METAR-TAF

Flygplatser :

Mehrabads flygplats

Teheran, Iran

latitud: 35-41N, longitud: 051-21E, höjd: 1204 m

Aktuellt väderrapport

Denna rapport gjordes för 34 minuter sedan, klockan 12:00 UTC
Vind 8 kt från syd
Temperatur 15°C
Fuktighet 25%
Tryck 1022 hPa
Sikt 10 km eller mer
Få moln på en höjd av 3000 ft, Cumulonimbus.
Spridda moln på en höjd av 4000 ft

METAR: OIII 251200Z 18008KT 9999 FEW030CB SCT040 15/M05 Q1021 A3017

Tid: 17:04 (12:34 UTC)

Väderprognos

Denna rapport gjordes för 25 timmar och 4 minuter sedan, klockan 11:30 UTC
Prognos gäller från 24 kl. 12 UTC till 25 kl. 18 UTC
Vind 6 kt från syd/sydväst
Sikt 10 km eller mer
Spridda moln på en höjd av 3500 ft
Temporärt
från 25 kl. 09 UTC till 25 kl. 15 UTC
Få moln på en höjd av 3500 ft, Högtornande cumulus.
Spridda moln på en höjd av 10000 ft

TAF: OIII 241130Z 2412/2518 20006KT 9999 SCT035 TEMPO 2509/2515 FEW035TCU SCT100

Aktuella väderrapporter och prognoser från 4000 flygplatser (METAR- och TAF-rapporter).

De tillgängliga stationerna syns som gula och röda prickar på kartan.

För musen över prickarna för att se namnen på stationerna.

Klicka sedan för att få väderrapporter och prognoser.

För att ändra kartan: Klicka på de gröna knapparna med ett svart kors på för att zooma in; den gröna knappen med ett streck på för att zooma ut; eller på de gröna pilarna för angränsande kartor.


METAR-TAF: